Time;durP1;ratioP1;P1;durP2;ratioP2;P2;SDS_P1;SDS_P2;PMS_P1;PMS_P2;Temp;Humidity;BMP_temperature;BMP_pressure;BME280_temperature;BME280_humidity;BME280_pressure;Samples;Min_cycle;Max_cycle;Signal;HPM_P1;HPM_P2
2021/08/17 00:00:01;;;;;;;0.53;0.50;;;15.10;99.90;;;;;;5011284;28;20182;-86
2021/08/17 00:02:27;;;;;;;0.77;0.77;;;15.10;99.90;;;;;;5036722;28;20214;-86
2021/08/17 00:04:53;;;;;;;0.60;0.53;;;15.10;99.90;;;;;;5019648;28;20209;-86
2021/08/17 00:07:19;;;;;;;1.70;0.53;;;15.00;99.90;;;;;;5017681;28;20216;-87
2021/08/17 00:09:45;;;;;;;6.80;1.30;;;15.00;99.90;;;;;;5036002;28;20202;-88
2021/08/17 00:12:11;;;;;;;8.83;1.07;;;15.00;99.90;;;;;;5033075;28;20186;-89
2021/08/17 00:14:36;;;;;;;5.43;1.43;;;15.00;99.90;;;;;;5027408;28;20209;-87
2021/08/17 00:17:03;;;;;;;4.77;0.90;;;15.00;99.90;;;;;;5010664;28;20230;-86
2021/08/17 00:19:29;;;;;;;1.70;1.10;;;15.00;99.90;;;;;;5010883;28;20709;-86
2021/08/17 00:21:54;;;;;;;3.13;0.90;;;15.00;99.90;;;;;;5010042;28;20305;-87
2021/08/17 00:24:20;;;;;;;2.37;1.60;;;15.00;99.90;;;;;;5019242;28;20193;-88
2021/08/17 00:26:46;;;;;;;1.87;0.50;;;15.00;99.90;;;;;;5010181;28;20187;-90
2021/08/17 00:29:11;;;;;;;6.53;0.90;;;14.80;99.90;;;;;;5011014;28;20233;-87
2021/08/17 00:31:37;;;;;;;0.40;0.40;;;14.70;99.90;;;;;;5034401;28;20704;-86
2021/08/17 00:34:03;;;;;;;2.03;0.60;;;14.70;99.90;;;;;;5026660;28;20222;-87
2021/08/17 00:36:30;;;;;;;3.53;1.47;;;14.70;99.90;;;;;;5026324;28;20210;-86
2021/08/17 00:38:56;;;;;;;2.90;1.13;;;14.70;99.90;;;;;;5035763;28;20601;-86
2021/08/17 00:41:22;;;;;;;6.77;1.00;;;14.60;99.90;;;;;;5024784;28;20238;-88
2021/08/17 00:43:48;;;;;;;4.70;0.83;;;14.60;99.90;;;;;;5011139;28;20209;-87
2021/08/17 00:46:14;;;;;;;1.90;0.90;;;14.60;99.90;;;;;;5010507;28;20228;-87
2021/08/17 00:48:40;;;;;;;13.97;0.93;;;14.70;99.90;;;;;;5033557;28;20564;-88
2021/08/17 00:51:07;;;;;;;11.57;1.73;;;14.70;99.90;;;;;;5033242;28;20204;-87
2021/08/17 00:53:34;;;;;;;3.43;1.30;;;14.60;99.90;;;;;;5026870;28;20214;-86
2021/08/17 00:56:01;;;;;;;6.67;1.40;;;14.60;99.90;;;;;;5033374;28;20725;-86
2021/08/17 00:58:27;;;;;;;6.50;1.00;;;14.50;99.90;;;;;;5026792;28;20706;-86
2021/08/17 01:00:53;;;;;;;2.13;1.50;;;14.50;99.90;;;;;;5009734;28;20993;-87
2021/08/17 01:03:19;;;;;;;0.50;0.50;;;14.40;99.90;;;;;;5017673;28;20201;-88
2021/08/17 01:05:45;;;;;;;0.87;0.40;;;14.40;99.90;;;;;;5026078;28;20187;-87
2021/08/17 01:08:11;;;;;;;2.83;0.70;;;14.50;99.90;;;;;;5008682;28;20206;-87
2021/08/17 01:10:37;;;;;;;0.60;0.60;;;14.60;99.90;;;;;;5018320;28;20198;-86
2021/08/17 01:13:03;;;;;;;2.53;1.07;;;14.70;99.90;;;;;;5025033;28;20210;-87
2021/08/17 01:15:30;;;;;;;1.93;1.83;;;14.80;99.90;;;;;;5025660;28;20225;-89
2021/08/17 01:17:55;;;;;;;2.87;0.70;;;14.90;99.90;;;;;;5033740;28;20236;-86
2021/08/17 01:20:21;;;;;;;1.70;0.77;;;14.90;99.90;;;;;;5008929;28;20221;-86
2021/08/17 01:22:48;;;;;;;4.80;1.60;;;14.80;99.90;;;;;;5026146;28;20222;-88
2021/08/17 01:25:14;;;;;;;2.57;0.80;;;14.90;99.90;;;;;;5009357;28;20213;-86
2021/08/17 01:27:42;;;;;;;7.63;1.47;;;14.90;99.90;;;;;;5032924;28;20279;-89
2021/08/17 01:30:10;;;;;;;2.40;1.30;;;14.90;99.90;;;;;;5018266;28;20210;-90
2021/08/17 01:32:36;;;;;;;10.70;1.83;;;14.80;99.90;;;;;;5026183;28;20182;-87
2021/08/17 01:35:03;;;;;;;2.03;1.00;;;14.80;99.90;;;;;;5025954;28;20225;-87
2021/08/17 01:37:29;;;;;;;2.70;0.87;;;14.90;99.90;;;;;;5034135;28;20210;-86
2021/08/17 01:40:03;;;;;;;10.37;1.10;;;14.90;99.90;;;;;;5025588;28;20205;-86
2021/08/17 01:42:30;;;;;;;6.20;1.20;;;14.80;99.90;;;;;;5035467;28;20228;-87
2021/08/17 01:45:00;;;;;;;3.00;1.53;;;14.80;99.90;;;;;;5035055;28;20181;-88
2021/08/17 01:47:32;;;;;;;2.57;1.30;;;14.80;99.90;;;;;;5024843;28;20216;-87
2021/08/17 01:50:02;;;;;;;4.53;0.73;;;14.80;99.90;;;;;;5032314;28;20272;-87
2021/08/17 01:52:31;;;;;;;6.33;0.93;;;14.80;99.90;;;;;;5032790;28;20721;-85
2021/08/17 01:54:57;;;;;;;2.47;0.70;;;14.80;99.90;;;;;;5032330;28;20214;-87
2021/08/17 01:57:23;;;;;;;1.10;1.00;;;14.80;99.90;;;;;;5008164;28;20190;-88
2021/08/17 01:59:52;;;;;;;0.57;0.50;;;14.80;99.90;;;;;;5025945;28;20197;-88
2021/08/17 02:02:17;;;;;;;3.63;2.43;;;14.80;99.90;;;;;;5010791;28;20718;-88
2021/08/17 02:04:43;;;;;;;5.00;0.93;;;14.80;99.90;;;;;;5012966;28;20218;-87
2021/08/17 02:07:09;;;;;;;1.90;0.80;;;14.70;99.90;;;;;;5013284;28;20222;-86
2021/08/17 02:09:35;;;;;;;0.50;0.50;;;14.70;99.90;;;;;;5012416;28;20225;-87
2021/08/17 02:12:00;;;;;;;1.67;0.73;;;14.60;99.90;;;;;;5012713;28;20191;-86
2021/08/17 02:14:27;;;;;;;2.70;0.70;;;14.60;99.90;;;;;;5012091;28;20247;-87
2021/08/17 02:16:53;;;;;;;2.23;0.97;;;14.60;99.90;;;;;;5020736;28;20202;-88
2021/08/17 02:19:19;;;;;;;0.83;0.40;;;14.60;99.90;;;;;;5028690;28;20245;-87
2021/08/17 02:21:45;;;;;;;0.47;0.47;;;14.60;99.90;;;;;;5012114;28;20246;-88
2021/08/17 02:24:11;;;;;;;4.87;0.80;;;14.60;99.90;;;;;;5012087;28;20193;-87
2021/08/17 02:26:37;;;;;;;1.17;0.93;;;14.60;99.90;;;;;;5005027;28;20651;-88
2021/08/17 02:29:03;;;;;;;4.53;0.80;;;14.50;99.90;;;;;;5011251;28;20249;-88
2021/08/17 02:31:29;;;;;;;3.50;1.00;;;14.60;99.90;;;;;;5012063;28;20222;-86
2021/08/17 02:33:55;;;;;;;2.73;2.13;;;14.60;99.90;;;;;;5012871;28;20213;-85
2021/08/17 02:36:21;;;;;;;3.40;0.90;;;14.60;99.90;;;;;;5037480;28;20183;-87
2021/08/17 02:38:47;;;;;;;0.93;0.50;;;14.70;99.90;;;;;;5038106;28;20256;-87
2021/08/17 02:41:13;;;;;;;3.40;1.33;;;14.70;99.90;;;;;;5027394;28;20363;-87
2021/08/17 02:43:39;;;;;;;2.30;0.70;;;14.70;99.90;;;;;;5029204;28;20317;-86
2021/08/17 02:46:05;;;;;;;5.93;1.20;;;14.70;99.90;;;;;;5034786;28;20218;-87
2021/08/17 02:48:30;;;;;;;1.90;0.77;;;14.70;99.90;;;;;;5012464;28;20321;-87
2021/08/17 02:50:56;;;;;;;1.37;0.90;;;14.70;99.90;;;;;;5012063;28;20202;-86
2021/08/17 02:53:22;;;;;;;3.90;1.60;;;14.70;99.90;;;;;;5028547;28;20229;-87
2021/08/17 02:55:48;;;;;;;2.03;0.77;;;14.70;99.90;;;;;;5018385;28;20222;-87
2021/08/17 02:58:13;;;;;;;1.03;0.67;;;14.70;99.90;;;;;;5026839;28;20310;-86
2021/08/17 03:00:40;;;;;;;4.47;1.17;;;14.60;99.90;;;;;;5011684;28;20241;-86
2021/08/17 03:03:06;;;;;;;3.80;1.20;;;14.60;99.90;;;;;;5035038;28;20190;-87
2021/08/17 03:05:32;;;;;;;5.93;1.00;;;14.60;99.90;;;;;;5028215;28;20193;-88
2021/08/17 03:08:03;;;;;;;6.77;0.87;;;14.70;99.90;;;;;;5027553;28;20218;-87
2021/08/17 03:10:29;;;;;;;4.90;0.93;;;14.70;99.90;;;;;;5037049;28;20242;-89
2021/08/17 03:12:56;;;;;;;3.20;0.77;;;14.60;99.90;;;;;;5034475;28;20719;-87
2021/08/17 03:15:23;;;;;;;1.70;0.60;;;14.70;99.90;;;;;;5035446;28;20523;-87
2021/08/17 03:17:49;;;;;;;8.00;2.30;;;14.70;99.90;;;;;;5036753;28;20205;-88
2021/08/17 03:20:16;;;;;;;2.40;0.73;;;14.70;99.90;;;;;;5035320;28;20766;-86
2021/08/17 03:22:42;;;;;;;1.20;1.00;;;14.60;99.90;;;;;;5028391;28;21040;-86
2021/08/17 03:25:13;;;;;;;6.63;0.90;;;14.70;99.90;;;;;;5028047;28;20214;-87
2021/08/17 03:27:40;;;;;;;3.57;1.10;;;14.70;99.90;;;;;;5036743;28;20210;-88
2021/08/17 03:30:08;;;;;;;5.53;1.03;;;14.70;99.90;;;;;;5012273;28;20265;-87
2021/08/17 03:32:34;;;;;;;1.13;1.00;;;14.70;99.90;;;;;;5035825;28;20179;-87
2021/08/17 03:35:00;;;;;;;1.27;0.97;;;14.70;99.90;;;;;;5038337;28;20225;-86
2021/08/17 03:37:26;;;;;;;1.23;0.87;;;14.70;99.90;;;;;;5033924;28;20906;-87
2021/08/17 03:39:52;;;;;;;0.50;0.50;;;14.80;99.90;;;;;;5020209;28;20314;-87
2021/08/17 03:42:18;;;;;;;1.17;1.00;;;14.80;99.90;;;;;;5010744;28;20349;-86
2021/08/17 03:44:44;;;;;;;2.87;1.00;;;14.80;99.90;;;;;;5019550;28;20197;-87
2021/08/17 03:47:09;;;;;;;3.27;0.80;;;14.80;99.90;;;;;;5035004;28;20217;-86
2021/08/17 03:49:35;;;;;;;2.77;1.00;;;14.80;99.90;;;;;;5019527;28;20572;-87
2021/08/17 03:52:01;;;;;;;7.73;1.33;;;14.80;99.90;;;;;;5035011;28;20217;-87
2021/08/17 03:54:27;;;;;;;3.53;1.20;;;14.80;99.90;;;;;;5033526;28;20214;-87
2021/08/17 03:56:53;;;;;;;2.03;1.07;;;14.90;99.90;;;;;;5011226;28;20194;-87
2021/08/17 03:59:18;;;;;;;4.47;1.53;;;14.90;99.90;;;;;;5011635;28;20214;-86
2021/08/17 04:01:46;;;;;;;1.37;0.63;;;14.90;99.90;;;;;;5019935;28;20226;-87
2021/08/17 04:04:12;;;;;;;2.33;1.30;;;14.90;99.90;;;;;;5026965;28;20293;-86
2021/08/17 04:06:37;;;;;;;0.90;0.40;;;14.90;99.90;;;;;;5010173;28;20360;-88
2021/08/17 04:09:03;;;;;;;3.30;1.20;;;14.90;99.90;;;;;;5018039;28;20194;-86
2021/08/17 04:11:29;;;;;;;5.90;1.40;;;15.00;99.90;;;;;;5036439;28;20221;-87
2021/08/17 04:13:55;;;;;;;4.17;1.60;;;15.10;99.90;;;;;;5031025;28;20225;-86
2021/08/17 04:16:20;;;;;;;1.43;1.20;;;15.10;99.90;;;;;;5017827;28;20205;-86
2021/08/17 04:18:46;;;;;;;4.33;1.70;;;15.10;99.90;;;;;;5009795;28;20215;-87
2021/08/17 04:21:12;;;;;;;6.50;1.73;;;15.10;99.90;;;;;;5009918;28;20207;-87
2021/08/17 04:23:38;;;;;;;3.80;1.87;;;15.20;99.90;;;;;;5011043;28;20186;-86
2021/08/17 04:26:04;;;;;;;4.77;1.67;;;15.20;99.90;;;;;;5015870;28;20264;-88
2021/08/17 04:28:29;;;;;;;6.77;1.57;;;15.20;99.90;;;;;;5009360;28;20226;-88
2021/08/17 04:30:55;;;;;;;2.93;2.20;;;15.30;99.90;;;;;;5034160;28;20913;-87
2021/08/17 04:33:21;;;;;;;10.13;2.20;;;15.20;99.90;;;;;;5009543;28;20652;-85
2021/08/17 04:35:47;;;;;;;2.43;1.03;;;15.20;99.90;;;;;;5035452;28;20194;-86
2021/08/17 04:38:12;;;;;;;6.07;2.00;;;15.20;99.90;;;;;;5007776;28;20202;-88
2021/08/17 04:40:38;;;;;;;7.13;1.50;;;15.20;99.90;;;;;;5025627;28;20217;-86
2021/08/17 04:43:04;;;;;;;4.63;1.53;;;15.20;99.90;;;;;;5034453;28;20687;-85
2021/08/17 04:45:29;;;;;;;2.10;1.80;;;15.30;99.90;;;;;;5024960;28;20221;-86
2021/08/17 04:47:55;;;;;;;3.50;1.63;;;15.40;99.90;;;;;;5025936;28;20194;-87
2021/08/17 04:50:22;;;;;;;4.90;2.10;;;15.30;99.90;;;;;;5021877;28;20206;-85
2021/08/17 04:52:48;;;;;;;3.03;1.53;;;15.30;99.90;;;;;;5008793;28;20559;-86
2021/08/17 04:55:14;;;;;;;3.13;1.33;;;15.30;99.90;;;;;;5033741;28;20210;-87
2021/08/17 04:57:51;;;;;;;4.27;1.97;;;15.30;99.90;;;;;;5024027;28;20271;-85
2021/08/17 05:00:17;;;;;;;2.53;1.80;;;15.30;99.90;;;;;;5033400;28;20598;-86
2021/08/17 05:02:42;;;;;;;4.60;1.57;;;15.30;99.90;;;;;;5009081;28;20679;-86
2021/08/17 05:05:09;;;;;;;4.20;1.67;;;15.30;99.90;;;;;;5024877;28;20209;-87
2021/08/17 05:07:39;;;;;;;3.40;1.37;;;15.30;99.90;;;;;;5009454;28;20233;-85
2021/08/17 05:10:10;;;;;;;7.47;2.50;;;15.30;99.90;;;;;;5017341;28;20770;-88
2021/08/17 05:12:37;;;;;;;4.50;1.60;;;15.40;99.90;;;;;;5033527;28;20739;-88
2021/08/17 05:15:04;;;;;;;1.73;1.63;;;15.40;99.90;;;;;;5026498;28;20187;-89
2021/08/17 05:17:30;;;;;;;3.80;1.50;;;15.50;99.90;;;;;;5024516;28;21095;-85
2021/08/17 05:19:56;;;;;;;2.77;1.63;;;15.50;99.90;;;;;;5034824;28;20218;-87
2021/08/17 05:22:22;;;;;;;1.77;1.17;;;15.60;99.90;;;;;;5032460;28;20690;-88
2021/08/17 05:24:48;;;;;;;1.73;0.83;;;15.60;99.90;;;;;;5017122;28;20210;-86
2021/08/17 05:27:14;;;;;;;2.23;1.63;;;15.60;99.90;;;;;;5009082;28;21255;-88
2021/08/17 05:29:39;;;;;;;4.10;1.47;;;15.60;99.90;;;;;;5010752;28;20560;-88
2021/08/17 05:32:05;;;;;;;13.20;2.80;;;15.60;99.90;;;;;;5008853;28;20210;-88
2021/08/17 05:34:31;;;;;;;3.13;1.17;;;15.60;99.90;;;;;;5023302;28;20221;-86
2021/08/17 05:36:57;;;;;;;2.70;1.30;;;15.60;99.90;;;;;;5033997;28;20214;-87
2021/08/17 05:39:24;;;;;;;3.43;2.40;;;15.50;99.90;;;;;;5009244;28;20240;-89
2021/08/17 05:41:50;;;;;;;2.00;1.40;;;15.50;99.90;;;;;;5026271;28;20636;-86
2021/08/17 05:44:19;;;;;;;7.77;2.30;;;15.60;99.90;;;;;;5024810;28;20272;-85
2021/08/17 05:46:45;;;;;;;7.10;1.60;;;15.60;99.90;;;;;;5035557;28;20206;-88
2021/08/17 05:49:11;;;;;;;6.50;2.13;;;15.60;99.90;;;;;;5034763;28;20574;-88
2021/08/17 05:51:37;;;;;;;8.53;2.40;;;15.60;99.90;;;;;;5034369;28;20205;-88
2021/08/17 05:54:03;;;;;;;2.03;1.50;;;15.70;99.90;;;;;;5036657;28;20643;-87
2021/08/17 05:56:28;;;;;;;9.53;2.27;;;15.70;99.90;;;;;;5026353;28;20768;-87
2021/08/17 05:58:54;;;;;;;4.30;1.20;;;15.80;99.90;;;;;;5008730;28;20214;-89
2021/08/17 06:01:20;;;;;;;2.47;1.53;;;16.00;99.90;;;;;;5008103;28;20298;-88
2021/08/17 06:03:46;;;;;;;4.97;1.10;;;16.50;99.90;;;;;;5008897;28;20213;-87
2021/08/17 06:06:12;;;;;;;6.57;1.90;;;16.40;99.90;;;;;;5034812;28;20277;-83
2021/08/17 06:08:38;;;;;;;9.03;1.77;;;16.20;99.90;;;;;;5010889;28;20617;-85
2021/08/17 06:11:04;;;;;;;2.13;0.93;;;16.10;99.90;;;;;;5024571;28;20236;-84
2021/08/17 06:13:29;;;;;;;3.17;1.47;;;16.00;99.90;;;;;;5017598;28;20233;-86
2021/08/17 06:15:56;;;;;;;5.30;2.50;;;15.90;99.90;;;;;;5017217;28;20217;-85
2021/08/17 06:18:22;;;;;;;2.37;1.60;;;15.80;99.90;;;;;;5009443;28;20225;-86
2021/08/17 06:20:47;;;;;;;3.13;1.57;;;15.70;99.90;;;;;;5026442;28;20210;-88
2021/08/17 06:23:13;;;;;;;8.07;1.90;;;15.70;99.90;;;;;;5024732;28;20219;-87
2021/08/17 06:25:39;;;;;;;3.23;1.43;;;15.80;99.90;;;;;;5008837;28;20215;-85
2021/08/17 06:28:09;;;;;;;1.70;1.20;;;15.80;99.90;;;;;;5024116;28;20238;-88
2021/08/17 06:30:36;;;;;;;2.40;1.87;;;15.80;99.90;;;;;;5034197;28;20577;-85
2021/08/17 06:33:02;;;;;;;4.40;2.00;;;15.80;99.90;;;;;;5026204;28;20198;-86
2021/08/17 06:35:28;;;;;;;4.07;1.97;;;15.80;99.90;;;;;;5024752;28;20214;-85
2021/08/17 06:37:53;;;;;;;2.67;1.23;;;15.90;99.90;;;;;;5008380;28;20214;-85
2021/08/17 06:40:20;;;;;;;6.33;1.50;;;15.90;99.90;;;;;;5008047;28;20729;-86
2021/08/17 06:42:45;;;;;;;4.27;1.33;;;16.10;99.90;;;;;;5023638;28;20711;-87
2021/08/17 06:45:12;;;;;;;1.83;0.80;;;16.20;99.90;;;;;;5025256;28;20189;-86
2021/08/17 06:47:52;;;;;;;3.90;2.00;;;16.30;99.90;;;;;;5024645;28;20179;-85
2021/08/17 06:50:18;;;;;;;5.37;2.93;;;16.50;99.90;;;;;;5037491;28;20214;-85
2021/08/17 06:52:44;;;;;;;2.70;1.27;;;16.40;99.90;;;;;;5037001;28;20740;-86
2021/08/17 06:55:11;;;;;;;2.13;1.67;;;16.40;99.90;;;;;;5037583;28;20245;-86
2021/08/17 06:57:38;;;;;;;3.70;1.97;;;16.30;99.90;;;;;;5036673;28;20225;-86
2021/08/17 07:00:07;;;;;;;7.50;2.17;;;16.40;99.90;;;;;;5039630;28;20717;-88
2021/08/17 07:02:33;;;;;;;3.30;1.03;;;16.40;99.90;;;;;;5035500;28;20222;-85
2021/08/17 07:04:58;;;;;;;1.77;1.23;;;16.40;99.90;;;;;;5028540;28;20222;-85
2021/08/17 07:07:24;;;;;;;5.73;1.60;;;16.50;99.90;;;;;;5010284;28;20313;-86
2021/08/17 07:09:50;;;;;;;4.43;2.23;;;16.60;99.90;;;;;;4970891;28;20220;-86
2021/08/17 07:12:15;;;;;;;3.23;1.40;;;16.50;99.90;;;;;;5014695;28;20240;-86
2021/08/17 07:14:41;;;;;;;2.73;1.37;;;16.60;99.90;;;;;;5027977;28;20255;-86
2021/08/17 07:17:07;;;;;;;7.73;2.37;;;16.70;99.90;;;;;;5011128;28;20234;-86
2021/08/17 07:19:33;;;;;;;3.80;1.27;;;16.70;99.90;;;;;;5018166;28;20222;-86
2021/08/17 07:21:59;;;;;;;8.50;1.93;;;16.80;99.90;;;;;;5011489;28;20222;-86
2021/08/17 07:24:25;;;;;;;2.70;1.67;;;16.70;99.90;;;;;;5035587;28;20546;-87
2021/08/17 07:26:51;;;;;;;2.53;1.17;;;16.70;99.90;;;;;;5011973;28;20201;-86
2021/08/17 07:29:17;;;;;;;3.93;1.07;;;16.60;99.90;;;;;;5034592;28;20841;-86
2021/08/17 07:31:43;;;;;;;5.40;2.67;;;16.60;99.90;;;;;;5034577;28;20301;-86
2021/08/17 07:34:09;;;;;;;1.87;1.17;;;16.60;99.90;;;;;;5035041;28;20661;-87
2021/08/17 07:36:36;;;;;;;1.87;1.23;;;16.70;99.90;;;;;;5001947;28;20222;-86
2021/08/17 07:39:07;;;;;;;2.00;1.57;;;16.60;99.90;;;;;;5028044;28;20277;-86
2021/08/17 07:41:33;;;;;;;4.67;1.83;;;16.60;99.90;;;;;;5036458;28;20849;-87
2021/08/17 07:44:00;;;;;;;1.73;1.50;;;16.60;99.90;;;;;;5036128;28;20237;-87
2021/08/17 07:46:26;;;;;;;4.57;2.03;;;16.60;99.90;;;;;;5034325;28;20218;-86
2021/08/17 07:48:52;;;;;;;7.73;2.57;;;16.70;99.90;;;;;;5009854;28;21116;-86
2021/08/17 07:51:18;;;;;;;3.43;1.53;;;16.50;99.90;;;;;;5033736;28;20726;-86
2021/08/17 07:53:44;;;;;;;4.97;2.10;;;16.60;99.90;;;;;;5026461;28;20273;-86
2021/08/17 07:56:10;;;;;;;8.67;3.33;;;16.50;99.90;;;;;;5018296;28;20206;-86
2021/08/17 07:58:36;;;;;;;3.70;2.00;;;16.60;99.90;;;;;;5020018;28;20228;-86
2021/08/17 08:01:02;;;;;;;4.60;2.43;;;16.60;99.90;;;;;;5034375;28;20234;-87
2021/08/17 08:03:27;;;;;;;4.20;2.37;;;16.50;99.90;;;;;;5010100;28;20289;-86
2021/08/17 08:05:53;;;;;;;13.43;2.57;;;16.60;99.90;;;;;;5019077;28;20186;-86
2021/08/17 08:08:19;;;;;;;12.83;2.70;;;16.70;99.90;;;;;;5010653;28;20225;-86
2021/08/17 08:10:45;;;;;;;2.40;2.03;;;16.80;99.90;;;;;;5010130;28;20268;-85
2021/08/17 08:13:10;;;;;;;8.10;2.80;;;17.10;99.90;;;;;;5034010;28;20250;-86
2021/08/17 08:15:36;;;;;;;6.77;2.60;;;17.30;99.90;;;;;;5011228;28;20309;-86
2021/08/17 08:18:03;;;;;;;5.43;2.47;;;17.50;99.90;;;;;;5035957;28;20178;-85
2021/08/17 08:20:29;;;;;;;6.37;2.20;;;17.60;99.90;;;;;;5035683;28;20218;-84
2021/08/17 08:22:55;;;;;;;9.40;3.00;;;17.60;99.90;;;;;;5027206;28;20240;-84
2021/08/17 08:25:20;;;;;;;3.80;2.30;;;17.70;99.90;;;;;;5026216;28;20253;-85
2021/08/17 08:27:47;;;;;;;8.27;3.20;;;18.00;99.90;;;;;;5034237;28;20220;-84
2021/08/17 08:30:13;;;;;;;5.60;2.43;;;18.40;99.90;;;;;;5035721;28;20174;-85
2021/08/17 08:32:39;;;;;;;7.17;2.63;;;18.80;99.90;;;;;;5037114;28;20191;-83
2021/08/17 08:35:06;;;;;;;5.37;2.27;;;18.90;99.90;;;;;;5034886;28;20225;-86
2021/08/17 08:37:32;;;;;;;6.30;2.67;;;18.90;99.90;;;;;;5009930;28;20710;-86
2021/08/17 08:39:58;;;;;;;6.73;2.97;;;18.60;99.90;;;;;;5009692;28;20217;-85
2021/08/17 08:42:25;;;;;;;2.87;2.40;;;18.30;99.90;;;;;;5025003;28;20245;-84
2021/08/17 08:44:52;;;;;;;5.10;2.80;;;18.00;99.90;;;;;;5026660;28;20306;-83
2021/08/17 08:47:20;;;;;;;3.73;2.47;;;17.80;99.90;;;;;;5034515;28;20384;-87
2021/08/17 08:49:49;;;;;;;9.10;3.60;;;17.50;99.90;;;;;;5027088;28;20292;-84
2021/08/17 08:52:16;;;;;;;7.20;3.47;;;17.30;99.90;;;;;;5031145;28;20709;-87
2021/08/17 08:54:41;;;;;;;7.50;3.53;;;17.10;99.90;;;;;;5025756;28;20210;-87
2021/08/17 08:57:07;;;;;;;9.23;3.33;;;17.30;99.90;;;;;;5010350;28;20546;-87
2021/08/17 08:59:33;;;;;;;7.27;4.13;;;17.30;99.90;;;;;;5009656;28;20209;-86
2021/08/17 09:02:07;;;;;;;9.87;3.37;;;17.40;99.90;;;;;;5035425;28;20238;-86
2021/08/17 09:04:33;;;;;;;9.33;3.43;;;17.20;99.90;;;;;;5035745;28;20211;-88
2021/08/17 09:06:59;;;;;;;7.03;3.27;;;17.10;99.90;;;;;;5032773;28;20214;-88
2021/08/17 09:09:25;;;;;;;8.27;3.33;;;17.60;99.90;;;;;;5025297;28;20227;-86
2021/08/17 09:11:54;;;;;;;6.83;2.93;;;17.90;99.90;;;;;;5026247;28;20244;-85
2021/08/17 09:14:25;;;;;;;7.93;3.57;;;18.00;99.90;;;;;;5033176;28;20292;-87
2021/08/17 09:16:55;;;;;;;12.47;4.93;;;17.90;99.90;;;;;;5035826;28;20925;-87
2021/08/17 09:19:37;;;;;;;7.80;4.30;;;18.10;99.90;;;;;;5033816;28;20265;-86
2021/08/17 09:22:13;;;;;;;6.83;3.33;;;18.20;99.90;;;;;;5033282;28;20234;-87
2021/08/17 09:24:39;;;;;;;9.33;3.87;;;18.50;99.90;;;;;;5034787;28;20229;-85
2021/08/17 09:27:11;;;;;;;9.17;3.53;;;18.50;99.90;;;;;;5032705;28;20209;-84
2021/08/17 09:29:40;;;;;;;3.93;2.70;;;19.20;99.90;;;;;;5032792;28;20593;-84
2021/08/17 09:32:18;;;;;;;6.47;3.00;;;19.80;99.90;;;;;;5034239;28;20790;-85
2021/08/17 09:34:47;;;;;;;7.83;3.57;;;20.10;99.90;;;;;;5036037;28;20218;-85
2021/08/17 09:37:13;;;;;;;7.37;1.90;;;20.50;99.90;;;;;;5033805;28;20584;-84
2021/08/17 09:39:48;;;;;;;19.07;3.40;;;19.40;99.90;;;;;;5026574;28;20300;-84
2021/08/17 09:42:23;;;;;;;5.87;3.00;;;18.90;99.90;;;;;;5033467;28;20229;-87
2021/08/17 09:45:23;;;;;;;3.60;1.90;;;19.10;99.90;;;;;;5034894;28;20264;-86
2021/08/17 09:47:56;;;;;;;7.57;2.83;;;19.40;99.90;;;;;;5002304;28;20889;-87
2021/08/17 09:50:31;;;;;;;8.60;3.27;;;20.10;99.90;;;;;;5024378;28;20205;-84
2021/08/17 09:53:18;;;;;;;8.33;3.40;;;20.60;99.90;;;;;;5042265;28;20202;-82
2021/08/17 09:55:47;;;;;;;5.10;3.17;;;21.00;99.90;;;;;;5017049;28;20210;-83
2021/08/17 09:58:15;;;;;;;7.73;3.53;;;20.90;99.90;;;;;;5033437;28;20222;-85
2021/08/17 10:00:41;;;;;;;4.70;2.73;;;20.10;99.90;;;;;;5033017;28;20233;-84
2021/08/17 10:03:08;;;;;;;8.60;2.73;;;19.20;99.90;;;;;;5009981;28;20191;-84
2021/08/17 10:05:35;;;;;;;7.97;2.30;;;19.60;99.90;;;;;;5034047;28;20674;-86
2021/08/17 10:08:02;;;;;;;4.83;2.47;;;19.60;99.90;;;;;;5034513;28;20210;-86
2021/08/17 10:10:28;;;;;;;4.63;3.17;;;19.30;99.90;;;;;;5034617;28;20213;-83
2021/08/17 10:12:54;;;;;;;4.10;2.57;;;19.20;99.90;;;;;;5034297;28;20210;-83
2021/08/17 10:15:21;;;;;;;8.87;3.87;;;19.10;99.90;;;;;;5032543;28;20222;-85
2021/08/17 10:17:48;;;;;;;9.37;3.20;;;18.90;99.90;;;;;;5024006;28;20182;-86
2021/08/17 10:20:16;;;;;;;2.57;1.97;;;18.80;99.90;;;;;;5025532;28;20714;-88
2021/08/17 10:22:43;;;;;;;5.23;2.70;;;18.50;99.90;;;;;;5033426;28;20233;-84
2021/08/17 10:25:17;;;;;;;2.13;1.53;;;18.50;99.90;;;;;;5027886;28;20296;-86
2021/08/17 10:27:43;;;;;;;8.47;3.63;;;18.70;99.90;;;;;;5028724;28;20237;-85
2021/08/17 10:30:17;;;;;;;8.63;3.30;;;19.40;99.90;;;;;;5039200;28;20271;-87
2021/08/17 10:32:48;;;;;;;8.20;2.93;;;19.70;99.90;;;;;;5037547;28;20202;-86
2021/08/17 10:35:26;;;;;;;0.87;0.87;;;19.90;99.90;;;;;;5038649;28;20217;-86
2021/08/17 10:38:14;;;;;;;3.30;2.10;;;19.50;99.90;;;;;;5035893;28;20627;-86
2021/08/17 10:40:52;;;;;;;4.50;2.73;;;19.00;99.90;;;;;;5035849;28;20587;-87
2021/08/17 10:43:24;;;;;;;6.20;2.37;;;18.70;99.90;;;;;;5036194;28;20716;-87
2021/08/17 10:45:51;;;;;;;8.03;2.97;;;18.50;99.90;;;;;;5035871;28;20213;-88
2021/08/17 10:48:53;;;;;;;5.20;2.37;;;18.30;99.90;;;;;;5028477;28;20182;-86
2021/08/17 10:51:19;;;;;;;10.83;3.50;;;18.30;99.90;;;;;;5035097;28;20198;-86
2021/08/17 10:53:46;;;;;;;8.77;3.37;;;18.80;99.90;;;;;;5036705;28;20190;-86
2021/08/17 10:56:16;;;;;;;6.60;2.27;;;20.10;99.90;;;;;;5028277;28;20318;-86
2021/08/17 10:58:50;;;;;;;7.97;2.77;;;21.20;99.90;;;;;;5036974;28;20219;-87
2021/08/17 11:01:31;;;;;;;4.93;2.40;;;21.60;99.90;;;;;;5035666;28;20232;-87
2021/08/17 11:03:58;;;;;;;4.70;2.30;;;20.80;99.90;;;;;;5035190;28;20225;-87
2021/08/17 11:06:41;;;;;;;6.27;2.20;;;20.60;99.90;;;;;;5036410;28;20895;-84
2021/08/17 11:09:19;;;;;;;1.77;1.47;;;20.40;99.90;;;;;;5038463;28;20197;-87
2021/08/17 11:11:48;;;;;;;3.37;2.57;;;20.30;99.90;;;;;;5038540;28;20264;-87
2021/08/17 11:14:19;;;;;;;6.43;2.17;;;19.90;99.90;;;;;;5039528;28;20793;-82
2021/08/17 11:16:54;;;;;;;3.47;2.33;;;19.90;99.90;;;;;;5036262;28;20954;-86
2021/08/17 11:19:28;;;;;;;4.30;2.63;;;20.50;99.90;;;;;;5037128;28;20580;-86
2021/08/17 11:21:56;;;;;;;3.80;1.80;;;20.90;99.90;;;;;;5027144;28;20721;-86
2021/08/17 11:24:33;;;;;;;9.13;2.77;;;20.20;99.90;;;;;;5036348;28;20189;-87
2021/08/17 11:27:18;;;;;;;4.00;2.57;;;20.30;99.90;;;;;;5035912;28;20189;-86
2021/08/17 11:29:56;;;;;;;7.63;2.87;;;20.80;99.90;;;;;;5036586;28;20243;-85
2021/08/17 11:32:36;;;;;;;4.47;2.50;;;20.20;99.90;;;;;;5033603;28;20206;-86
2021/08/17 11:35:08;;;;;;;5.23;2.33;;;19.90;99.90;;;;;;5033643;28;20305;-85
2021/08/17 11:37:36;;;;;;;4.20;2.17;;;19.50;99.90;;;;;;5035147;28;20213;-86
2021/08/17 11:40:05;;;;;;;2.17;1.97;;;19.60;99.90;;;;;;5035363;28;20220;-85
2021/08/17 11:42:39;;;;;;;2.43;1.83;;;19.20;99.90;;;;;;5035570;28;20590;-86
2021/08/17 11:45:17;;;;;;;8.87;2.67;;;19.10;99.90;;;;;;5036521;28;20259;-84
2021/08/17 11:47:45;;;;;;;3.17;2.33;;;19.10;99.90;;;;;;5034694;28;20565;-86
2021/08/17 11:50:16;;;;;;;5.53;1.80;;;19.00;99.90;;;;;;5035861;28;20241;-86
2021/08/17 11:52:47;;;;;;;3.97;2.27;;;19.00;99.90;;;;;;5037144;28;20273;-86
2021/08/17 11:55:21;;;;;;;2.97;2.07;;;19.10;99.90;;;;;;5010220;28;20305;-86
2021/08/17 11:57:51;;;;;;;5.17;2.10;;;19.10;99.90;;;;;;5038835;28;20210;-86
2021/08/17 12:00:31;;;;;;;2.70;2.10;;;19.20;99.90;;;;;;5035251;28;20185;-85
2021/08/17 12:02:59;;;;;;;1.23;1.07;;;19.30;99.90;;;;;;5027162;28;20194;-86
2021/08/17 12:05:30;;;;;;;6.07;2.10;;;19.40;99.90;;;;;;5036228;28;20229;-85
2021/08/17 12:07:58;;;;;;;7.50;2.43;;;19.50;99.90;;;;;;5036869;28;20214;-85
2021/08/17 12:10:25;;;;;;;2.90;1.90;;;19.70;99.90;;;;;;5009663;28;20221;-84
2021/08/17 12:13:09;;;;;;;5.30;2.37;;;20.20;99.90;;;;;;5035006;28;20233;-84
2021/08/17 12:15:48;;;;;;;6.17;2.50;;;20.10;99.90;;;;;;5033952;28;20213;-85
2021/08/17 12:18:16;;;;;;;3.40;2.60;;;19.70;99.90;;;;;;5033766;28;20658;-86
2021/08/17 12:21:05;;;;;;;3.13;1.67;;;19.20;99.90;;;;;;5035925;28;20247;-86
2021/08/17 12:23:43;;;;;;;4.70;1.83;;;19.00;99.90;;;;;;5032342;28;20643;-87
2021/08/17 12:26:17;;;;;;;2.00;1.60;;;19.20;99.90;;;;;;5033911;28;20593;-86
2021/08/17 12:28:48;;;;;;;1.87;1.27;;;19.20;99.90;;;;;;5035287;28;20568;-86
2021/08/17 12:31:35;;;;;;;4.27;1.63;;;19.30;99.90;;;;;;5025889;28;20272;-86
2021/08/17 12:34:04;;;;;;;3.37;2.30;;;19.40;99.90;;;;;;5034578;28;20222;-85
2021/08/17 12:36:48;;;;;;;4.00;1.70;;;19.40;99.90;;;;;;5033983;28;20195;-87
2021/08/17 12:39:23;;;;;;;4.90;1.60;;;19.20;99.90;;;;;;5035367;28;20197;-88
2021/08/17 12:42:04;;;;;;;2.53;1.93;;;18.70;99.90;;;;;;5033055;28;20237;-88
2021/08/17 12:44:36;;;;;;;3.53;1.63;;;18.60;99.90;;;;;;5034580;28;20222;-88
2021/08/17 12:47:12;;;;;;;5.87;2.07;;;18.80;99.90;;;;;;5034226;28;20225;-87
2021/08/17 12:49:40;;;;;;;4.97;1.50;;;18.70;99.90;;;;;;5029522;28;20301;-87